Haukur — OZ2119 — position and weather

sailwx.info

Track history (hours):
 
Tides and Currents Weather Stations Pressure Air Temp Water Temp Dewpoint Dewpoint Depression Visibility Wind Speed Wind Dir Waves Ship Positions

Haukur

Last reported at 2014-Dec-12 00:34 UTC. Time now 2014-Dec-21 20:52 UTC.
Position N 59°07' W 004°19'.
Warning: this ship's position is 9 days out of date.

Length 75 m; draft 4.6 m.

Type: Cargo ship. MMSI: 231812000.

Date/timePositionNaut miles runAvg speedWind from/ knotsBaromVisibWave heightAir tempDewpointWater temp
2014-Dec-12 00:34N 59°07' W 004°19'5 5.1
2014-Dec-11 23:33N 59°04' W 004°10'5 5.0
2014-Dec-11 22:33N 59°01' W 004°03'5 5.0
2014-Dec-11 21:33N 58°58' W 003°55'5 4.9
2014-Dec-11 20:34N 58°55' W 003°47'5 5.1
2014-Dec-11 19:33N 58°52' W 003°39'5 4.8
2014-Dec-11 18:34N 58°49' W 003°32'5 5.3
2014-Dec-11 17:33N 58°46' W 003°24'6 6.1
2014-Dec-11 16:33N 58°44' W 003°13'9 8.9
2014-Dec-11 15:33N 58°38' W 002°60'11 9.8
2014-Dec-11 14:25N 58°27' W 002°57'  
2014-Dec-08 20:17N 57°45' W 002°03'4 4.8
2014-Dec-08 19:33N 57°44' W 001°56'6 6.2
2014-Dec-08 18:33N 57°41' W 001°47'6 5.8
2014-Dec-08 17:34N 57°37' W 001°39'5 5.0
2014-Dec-08 16:34N 57°33' W 001°32'3 3.4
2014-Dec-08 15:34N 57°31' W 001°28'2 2.4
2014-Dec-08 14:33N 57°29' W 001°24'3 3.1
2014-Dec-08 13:34N 57°28' W 001°19'4 3.8
2014-Dec-08 12:34N 57°26' W 001°13'4 3.7
2014-Dec-08 11:31N 57°25' W 001°06'6 5.4
2014-Dec-08 10:30N 57°22' W 000°57'315 6.3
2014-Dec-06 08:13N 54°27' E 006°51'4 5.9
2014-Dec-06 07:33N 54°25' E 006°56'8 7.8
2014-Dec-06 06:34N 54°20' E 007°07'9 9.0
2014-Dec-06 05:33N 54°16' E 007°20'9 9.5
2014-Dec-06 04:34N 54°11' E 007°35'1010.1
2014-Dec-06 03:33N 54°07' E 007°50'1010.1
2014-Dec-06 02:34N 54°02' E 008°05'1110.5
2014-Dec-06 01:34N 53°60' E 008°23'1110.9
2014-Dec-06 00:33N 53°56' E 008°40'8 8.1
2014-Dec-05 23:34N 53°50' E 008°50'7 7.4
2014-Dec-05 22:34N 53°52' E 009°03'7 6.8
2014-Dec-05 21:33N 53°53' E 009°14'8 7.9
2014-Dec-05 20:33N 53°47' E 009°23'1110.9
2014-Dec-05 19:34N 53°38' E 009°32'1111.3
2014-Dec-05 18:34N 53°33' E 009°50'5 5.1
2014-Dec-05 17:33N 53°31' E 009°58'0 0.0
2014-Dec-05 16:33N 53°31' E 009°58'0 0.0
2014-Dec-05 15:33N 53°31' E 009°58'0 0.0
2014-Dec-05 14:30N 53°31' E 009°58'0 0.0
2014-Dec-05 13:33N 53°31' E 009°58'0 0.0
2014-Dec-05 12:33N 53°31' E 009°58'0 0.0
2014-Dec-05 11:33N 53°31' E 009°58'0 0.0
2014-Dec-05 10:33N 53°31' E 009°58'0 0.0
2014-Dec-05 09:33N 53°31' E 009°58'0 0.0
2014-Dec-05 08:33N 53°31' E 009°58'0 0.0
2014-Dec-05 07:30N 53°31' E 009°58'0 0.0
2014-Dec-05 06:30N 53°31' E 009°58'0 0.0
2014-Dec-05 05:33N 53°31' E 009°58'0 0.0
2014-Dec-05 04:33N 53°31' E 009°58'0 0.0
2014-Dec-05 03:32N 53°31' E 009°58'0 0.0
2014-Dec-05 02:32N 53°31' E 009°58'0 0.0
2014-Dec-05 01:32N 53°31' E 009°58'0 0.0
2014-Dec-05 00:32N 53°31' E 009°58'3 3.3
2014-Dec-04 23:33N 53°33' E 009°53'1111.2
2014-Dec-04 22:33N 53°36' E 009°35'1212.0
2014-Dec-04 21:33N 53°46' E 009°24'1111.2
2014-Dec-04 20:33N 53°53' E 009°08'1110.7
2014-Dec-04 19:33N 53°50' E 008°50'1010.3
2014-Dec-04 18:33N 53°57' E 008°37'10 9.9
2014-Dec-04 17:33N 53°59' E 008°21'10 9.8
2014-Dec-04 16:33N 53°59' E 008°04'6 6.3
2014-Dec-04 15:33N 53°57' E 007°54'6 6.0
2014-Dec-04 14:33N 53°56' E 007°44'6 6.1
2014-Dec-04 13:29N 53°54' E 007°33'8 5.8
2014-Dec-04 12:04N 53°53' E 007°19'22 5.8
2014-Dec-04 08:12N 53°48' E 006°43'12 4.2
2014-Dec-04 05:15N 53°45' E 006°22'3 3.5
2014-Dec-04 04:32N 53°44' E 006°18'3 3.3
2014-Dec-04 03:33N 53°42' E 006°13'3 3.2
2014-Dec-04 02:33N 53°41' E 006°08'3 2.9
2014-Dec-04 01:33N 53°41' E 006°03'3 3.0
2014-Dec-04 00:33N 53°40' E 005°59'3 2.8
2014-Dec-03 23:33N 53°39' E 005°54'3 2.7
2014-Dec-03 22:33N 53°38' E 005°50'3 2.9
2014-Dec-03 21:33N 53°38' E 005°45'3 2.9
2014-Dec-03 20:33N 53°37' E 005°40'3 2.9
2014-Dec-03 19:33N 53°36' E 005°36'3 2.7
2014-Dec-03 18:33N 53°34' E 005°32'3 3.1
2014-Dec-03 17:33N 53°33' E 005°27'5 4.8
2014-Dec-03 16:33N 53°32' E 005°19'6 5.5
2014-Dec-03 15:33N 53°30' E 005°10'5 5.4
2014-Dec-03 14:33N 53°29' E 005°02'6 5.6
2014-Dec-03 13:33N 53°26' E 004°53'5 5.3
2014-Dec-03 12:33N 53°24' E 004°45'5 5.0
2014-Dec-03 11:33N 53°20' E 004°41'4 4.4
2014-Dec-03 10:33N 53°16' E 004°37'5 4.6
2014-Dec-03 09:33N 53°12' E 004°33'6 4.6
2014-Dec-03 08:20N 53°07' E 004°29'4 4.5
2014-Dec-03 07:32N 53°04' E 004°26'4 3.6
2014-Dec-03 06:27N 53°01' E 004°23'2 2.5
2014-Dec-03 05:33N 52°59' E 004°21'5 3.6
2014-Dec-03 04:15N 52°54' E 004°18'3 4.5
2014-Dec-03 03:29N 52°51' E 004°15'5 4.8
2014-Dec-03 02:32N 52°47' E 004°11'6 5.8
2014-Dec-03 01:33N 52°43' E 004°06'7 6.6
2014-Dec-03 00:33N 52°37' E 004°01'7 6.9
2014-Dec-02 23:33N 52°31' E 003°55'6 5.9
2014-Dec-02 22:33N 52°25' E 003°53'6 5.8
2014-Dec-02 21:33N 52°19' E 003°51'6 5.9
2014-Dec-02 20:33N 52°14' E 003°53'6 6.3
2014-Dec-02 19:33N 52°07' E 003°55'6 6.0
2014-Dec-02 18:33N 52°02' E 003°57'1211.6
2014-Dec-02 17:33N 51°56' E 004°13'3 3.1
2014-Dec-02 16:31N 51°53' E 004°17'0 0.0
2014-Dec-02 15:31N 51°53' E 004°17'0 0.0
2014-Dec-02 14:31N 51°53' E 004°17'0 0.0
2014-Dec-02 13:31N 51°53' E 004°17'0 0.0
2014-Dec-02 12:31N 51°53' E 004°17'0 0.0
2014-Dec-02 11:31N 51°53' E 004°17'0 0.0
2014-Dec-02 10:28N 51°53' E 004°17'0 0.0
2014-Dec-02 09:28N 51°53' E 004°17'0 0.0
2014-Dec-02 08:31N 51°53' E 004°17'0 0.0
2014-Dec-02 07:25N 51°53' E 004°17'0 0.0
2014-Dec-02 06:34N 51°53' E 004°17'0 0.0
2014-Dec-02 05:31N 51°53' E 004°17'0 0.0
2014-Dec-02 04:31N 51°53' E 004°17'0 0.0
2014-Dec-02 03:27N 51°53' E 004°17'0 0.0
2014-Dec-02 02:30N 51°53' E 004°17'0 0.0
2014-Dec-02 01:34N 51°53' E 004°17'  
Track history (hours):
 
Tides and Currents Weather Stations Pressure Air Temp Water Temp Dewpoint Dewpoint Depression Visibility Wind Speed Wind Dir Waves Ship Positions

Haukur

Last reported at 2014-Dec-12 00:34 UTC. Time now 2014-Dec-21 20:52 UTC.
Position N 59°07' W 004°19'.
Warning: this ship's position is 9 days out of date.

Length 75 m; draft 4.6 m.

Type: Cargo ship. MMSI: 231812000.

Date/timePositionNaut miles runAvg speedWind from/ knotsBaromVisibWave heightAir tempDewpointWater temp
2014-Dec-12 00:34N 59°07' W 004°19'5 5.1
2014-Dec-11 23:33N 59°04' W 004°10'5 5.0
2014-Dec-11 22:33N 59°01' W 004°03'5 5.0
2014-Dec-11 21:33N 58°58' W 003°55'5 4.9
2014-Dec-11 20:34N 58°55' W 003°47'5 5.1
2014-Dec-11 19:33N 58°52' W 003°39'5 4.8
2014-Dec-11 18:34N 58°49' W 003°32'5 5.3
2014-Dec-11 17:33N 58°46' W 003°24'6 6.1
2014-Dec-11 16:33N 58°44' W 003°13'9 8.9
2014-Dec-11 15:33N 58°38' W 002°60'11 9.8
2014-Dec-11 14:25N 58°27' W 002°57'  
2014-Dec-08 20:17N 57°45' W 002°03'4 4.8
2014-Dec-08 19:33N 57°44' W 001°56'6 6.2
2014-Dec-08 18:33N 57°41' W 001°47'6 5.8
2014-Dec-08 17:34N 57°37' W 001°39'5 5.0
2014-Dec-08 16:34N 57°33' W 001°32'3 3.4
2014-Dec-08 15:34N 57°31' W 001°28'2 2.4
2014-Dec-08 14:33N 57°29' W 001°24'3 3.1
2014-Dec-08 13:34N 57°28' W 001°19'4 3.8
2014-Dec-08 12:34N 57°26' W 001°13'4 3.7
2014-Dec-08 11:31N 57°25' W 001°06'6 5.4
2014-Dec-08 10:30N 57°22' W 000°57'315 6.3
2014-Dec-06 08:13N 54°27' E 006°51'4 5.9
2014-Dec-06 07:33N 54°25' E 006°56'8 7.8
2014-Dec-06 06:34N 54°20' E 007°07'9 9.0
2014-Dec-06 05:33N 54°16' E 007°20'9 9.5
2014-Dec-06 04:34N 54°11' E 007°35'1010.1
2014-Dec-06 03:33N 54°07' E 007°50'1010.1
2014-Dec-06 02:34N 54°02' E 008°05'1110.5
2014-Dec-06 01:34N 53°60' E 008°23'1110.9
2014-Dec-06 00:33N 53°56' E 008°40'8 8.1
2014-Dec-05 23:34N 53°50' E 008°50'7 7.4
2014-Dec-05 22:34N 53°52' E 009°03'7 6.8
2014-Dec-05 21:33N 53°53' E 009°14'8 7.9
2014-Dec-05 20:33N 53°47' E 009°23'1110.9
2014-Dec-05 19:34N 53°38' E 009°32'1111.3
2014-Dec-05 18:34N 53°33' E 009°50'5 5.1
2014-Dec-05 17:33N 53°31' E 009°58'0 0.0
2014-Dec-05 16:33N 53°31' E 009°58'0 0.0
2014-Dec-05 15:33N 53°31' E 009°58'0 0.0
2014-Dec-05 14:30N 53°31' E 009°58'0 0.0
2014-Dec-05 13:33N 53°31' E 009°58'0 0.0
2014-Dec-05 12:33N 53°31' E 009°58'0 0.0
2014-Dec-05 11:33N 53°31' E 009°58'0 0.0
2014-Dec-05 10:33N 53°31' E 009°58'0 0.0
2014-Dec-05 09:33N 53°31' E 009°58'0 0.0
2014-Dec-05 08:33N 53°31' E 009°58'0 0.0
2014-Dec-05 07:30N 53°31' E 009°58'0 0.0
2014-Dec-05 06:30N 53°31' E 009°58'0 0.0
2014-Dec-05 05:33N 53°31' E 009°58'0 0.0
2014-Dec-05 04:33N 53°31' E 009°58'0 0.0
2014-Dec-05 03:32N 53°31' E 009°58'0 0.0
2014-Dec-05 02:32N 53°31' E 009°58'0 0.0
2014-Dec-05 01:32N 53°31' E 009°58'0 0.0
2014-Dec-05 00:32N 53°31' E 009°58'3 3.3
2014-Dec-04 23:33N 53°33' E 009°53'1111.2
2014-Dec-04 22:33N 53°36' E 009°35'1212.0
2014-Dec-04 21:33N 53°46' E 009°24'1111.2
2014-Dec-04 20:33N 53°53' E 009°08'1110.7
2014-Dec-04 19:33N 53°50' E 008°50'1010.3
2014-Dec-04 18:33N 53°57' E 008°37'10 9.9
2014-Dec-04 17:33N 53°59' E 008°21'10 9.8
2014-Dec-04 16:33N 53°59' E 008°04'6 6.3
2014-Dec-04 15:33N 53°57' E 007°54'6 6.0
2014-Dec-04 14:33N 53°56' E 007°44'6 6.1
2014-Dec-04 13:29N 53°54' E 007°33'8 5.8
2014-Dec-04 12:04N 53°53' E 007°19'22 5.8
2014-Dec-04 08:12N 53°48' E 006°43'12 4.2
2014-Dec-04 05:15N 53°45' E 006°22'3 3.5
2014-Dec-04 04:32N 53°44' E 006°18'3 3.3
2014-Dec-04 03:33N 53°42' E 006°13'3 3.2
2014-Dec-04 02:33N 53°41' E 006°08'3 2.9
2014-Dec-04 01:33N 53°41' E 006°03'3 3.0
2014-Dec-04 00:33N 53°40' E 005°59'3 2.8
2014-Dec-03 23:33N 53°39' E 005°54'3 2.7
2014-Dec-03 22:33N 53°38' E 005°50'3 2.9
2014-Dec-03 21:33N 53°38' E 005°45'3 2.9
2014-Dec-03 20:33N 53°37' E 005°40'3 2.9
2014-Dec-03 19:33N 53°36' E 005°36'3 2.7
2014-Dec-03 18:33N 53°34' E 005°32'3 3.1
2014-Dec-03 17:33N 53°33' E 005°27'5 4.8
2014-Dec-03 16:33N 53°32' E 005°19'6 5.5
2014-Dec-03 15:33N 53°30' E 005°10'5 5.4
2014-Dec-03 14:33N 53°29' E 005°02'6 5.6
2014-Dec-03 13:33N 53°26' E 004°53'5 5.3
2014-Dec-03 12:33N 53°24' E 004°45'5 5.0
2014-Dec-03 11:33N 53°20' E 004°41'4 4.4
2014-Dec-03 10:33N 53°16' E 004°37'5 4.6
2014-Dec-03 09:33N 53°12' E 004°33'6 4.6
2014-Dec-03 08:20N 53°07' E 004°29'4 4.5
2014-Dec-03 07:32N 53°04' E 004°26'4 3.6
2014-Dec-03 06:27N 53°01' E 004°23'2 2.5
2014-Dec-03 05:33N 52°59' E 004°21'5 3.6
2014-Dec-03 04:15N 52°54' E 004°18'3 4.5
2014-Dec-03 03:29N 52°51' E 004°15'5 4.8
2014-Dec-03 02:32N 52°47' E 004°11'6 5.8
2014-Dec-03 01:33N 52°43' E 004°06'7 6.6
2014-Dec-03 00:33N 52°37' E 004°01'7 6.9
2014-Dec-02 23:33N 52°31' E 003°55'6 5.9
2014-Dec-02 22:33N 52°25' E 003°53'6 5.8
2014-Dec-02 21:33N 52°19' E 003°51'6 5.9
2014-Dec-02 20:33N 52°14' E 003°53'6 6.3
2014-Dec-02 19:33N 52°07' E 003°55'6 6.0
2014-Dec-02 18:33N 52°02' E 003°57'1211.6
2014-Dec-02 17:33N 51°56' E 004°13'3 3.1
2014-Dec-02 16:31N 51°53' E 004°17'0 0.0
2014-Dec-02 15:31N 51°53' E 004°17'0 0.0
2014-Dec-02 14:31N 51°53' E 004°17'0 0.0
2014-Dec-02 13:31N 51°53' E 004°17'0 0.0
2014-Dec-02 12:31N 51°53' E 004°17'0 0.0
2014-Dec-02 11:31N 51°53' E 004°17'0 0.0
2014-Dec-02 10:28N 51°53' E 004°17'0 0.0
2014-Dec-02 09:28N 51°53' E 004°17'0 0.0
2014-Dec-02 08:31N 51°53' E 004°17'0 0.0
2014-Dec-02 07:25N 51°53' E 004°17'0 0.0
2014-Dec-02 06:34N 51°53' E 004°17'0 0.0
2014-Dec-02 05:31N 51°53' E 004°17'0 0.0
2014-Dec-02 04:31N 51°53' E 004°17'0 0.0
2014-Dec-02 03:27N 51°53' E 004°17'0 0.0
2014-Dec-02 02:30N 51°53' E 004°17'0 0.0
2014-Dec-02 01:34N 51°53' E 004°17'  

Dump ship's entire track history